createdAt,value
2023-02-28T00:01:55.457Z,8.80
2023-02-28T00:05:04.559Z,8.20
2023-02-28T00:08:08.404Z,8.70
2023-02-28T00:11:14.493Z,7.23
2023-02-28T00:14:18.410Z,7.57
2023-02-28T00:17:23.799Z,7.67
2023-02-28T00:20:27.916Z,6.67
2023-02-28T00:23:32.142Z,7.37
2023-02-28T00:26:36.083Z,7.67
2023-02-28T00:29:40.396Z,7.60
2023-02-28T00:32:46.092Z,8.53
2023-02-28T00:35:50.015Z,7.50
2023-02-28T00:38:53.926Z,7.70
2023-02-28T00:41:57.729Z,7.60
2023-02-28T00:45:01.526Z,8.23
2023-02-28T00:48:07.370Z,7.20
2023-02-28T00:51:11.395Z,7.60
2023-02-28T00:54:15.470Z,7.80
2023-02-28T00:57:19.224Z,7.93
2023-02-28T01:00:23.233Z,6.93
2023-02-28T01:03:29.175Z,7.63
2023-02-28T01:06:33.206Z,6.77
2023-02-28T01:09:36.997Z,8.37
2023-02-28T01:12:41.848Z,7.33
2023-02-28T01:15:51.521Z,7.80
2023-02-28T01:18:57.179Z,6.93
2023-02-28T01:22:03.952Z,7.97
2023-02-28T01:25:08.394Z,6.90
2023-02-28T01:28:12.106Z,6.53
2023-02-28T01:31:16.260Z,6.20
2023-02-28T01:34:21.491Z,6.00
2023-02-28T01:37:25.184Z,7.00
2023-02-28T01:40:28.805Z,6.57
2023-02-28T01:43:34.229Z,7.30
2023-02-28T01:46:38.856Z,7.10
2023-02-28T01:49:45.301Z,6.90
2023-02-28T01:52:51.456Z,7.60
2023-02-28T01:55:56.504Z,6.47
2023-02-28T01:59:00.322Z,6.90
2023-02-28T02:02:04.969Z,6.73
2023-02-28T02:05:13.372Z,6.93
2023-02-28T02:08:21.396Z,7.10
2023-02-28T02:11:30.987Z,6.60
2023-02-28T02:14:46.159Z,6.80
2023-02-28T02:17:54.379Z,6.53
2023-02-28T02:21:30.546Z,7.60
2023-02-28T02:25:02.226Z,7.50
2023-02-28T02:28:47.758Z,8.90
2023-02-28T02:32:18.409Z,9.13
2023-02-28T02:35:30.071Z,9.30
2023-02-28T02:38:40.802Z,8.67
2023-02-28T02:41:51.820Z,9.67
2023-02-28T02:45:01.010Z,8.90
2023-02-28T02:48:08.730Z,8.93
2023-02-28T02:51:17.312Z,9.50
2023-02-28T02:54:25.328Z,9.10
2023-02-28T02:57:34.770Z,8.40
2023-02-28T03:00:43.702Z,8.80
2023-02-28T03:03:48.265Z,8.77
2023-02-28T03:06:55.984Z,9.47
2023-02-28T03:10:00.471Z,9.43
2023-02-28T03:13:20.491Z,10.00
2023-02-28T03:16:46.743Z,9.60
2023-02-28T03:19:58.087Z,9.90
2023-02-28T03:23:18.960Z,9.77
2023-02-28T03:26:29.060Z,10.00
2023-02-28T03:29:38.000Z,9.80
2023-02-28T03:32:45.497Z,10.53
2023-02-28T03:35:55.569Z,11.10
2023-02-28T03:39:04.460Z,10.97
2023-02-28T03:42:11.984Z,10.70
2023-02-28T03:45:20.686Z,11.63
2023-02-28T03:48:30.130Z,12.30
2023-02-28T03:51:36.113Z,11.07
2023-02-28T03:54:46.378Z,10.13
2023-02-28T03:57:59.302Z,11.30
2023-02-28T04:01:09.889Z,11.77
2023-02-28T04:04:14.762Z,12.57
2023-02-28T04:07:19.306Z,13.73
2023-02-28T04:10:24.620Z,11.70
2023-02-28T04:13:28.419Z,10.37
2023-02-28T04:16:35.424Z,10.70
2023-02-28T04:19:39.816Z,10.97
2023-02-28T04:22:43.551Z,9.73
2023-02-28T04:25:48.675Z,10.73
2023-02-28T04:28:52.424Z,10.30
2023-02-28T04:31:59.135Z,10.63
2023-02-28T04:35:03.802Z,11.10
2023-02-28T04:38:07.314Z,11.07
2023-02-28T04:41:12.643Z,12.33
2023-02-28T04:44:17.367Z,10.27
2023-02-28T04:47:21.122Z,10.60
2023-02-28T04:50:24.865Z,10.60
2023-02-28T04:53:29.752Z,9.53
2023-02-28T04:56:34.962Z,10.70
2023-02-28T04:59:38.577Z,10.30
2023-02-28T05:02:42.401Z,10.40
2023-02-28T05:05:46.051Z,10.30
2023-02-28T05:08:49.913Z,10.90
2023-02-28T05:11:55.069Z,11.10
2023-02-28T05:14:58.862Z,10.67
2023-02-28T05:18:02.403Z,11.10
2023-02-28T05:21:06.191Z,10.83
2023-02-28T05:24:12.955Z,11.17
2023-02-28T05:27:18.149Z,11.27
2023-02-28T05:30:22.220Z,9.57
2023-02-28T05:33:26.030Z,10.47
2023-02-28T05:36:29.850Z,11.37
2023-02-28T05:39:33.504Z,10.43
2023-02-28T05:42:38.645Z,10.33
2023-02-28T05:45:42.381Z,9.23
2023-02-28T05:48:50.260Z,10.03
2023-02-28T05:51:53.903Z,9.97
2023-02-28T05:54:57.604Z,9.97
2023-02-28T05:58:02.952Z,10.03
2023-02-28T06:01:23.993Z,9.30
2023-02-28T06:04:31.980Z,9.90
2023-02-28T06:07:36.024Z,9.17
2023-02-28T06:10:39.819Z,7.90
2023-02-28T06:13:45.075Z,10.40
2023-02-28T06:16:50.089Z,10.67
2023-02-28T06:19:54.131Z,9.53
2023-02-28T06:22:59.737Z,8.70
2023-02-28T06:26:03.607Z,10.70
2023-02-28T06:29:08.897Z,11.63
2023-02-28T06:32:12.805Z,12.60
2023-02-28T06:35:16.870Z,9.83
2023-02-28T06:38:21.384Z,12.83
2023-02-28T06:41:26.657Z,12.40
2023-02-28T06:44:36.495Z,8.90
2023-02-28T06:47:42.231Z,12.03
2023-02-28T06:50:46.344Z,11.90
2023-02-28T06:53:50.170Z,11.70
2023-02-28T06:56:55.468Z,11.73
2023-02-28T07:00:01.388Z,12.10
2023-02-28T07:03:05.184Z,11.33
2023-02-28T07:06:09.380Z,10.27
2023-02-28T07:09:13.206Z,11.10
2023-02-28T07:12:17.070Z,12.73
2023-02-28T07:15:22.325Z,12.43
2023-02-28T07:18:26.341Z,13.07
2023-02-28T07:21:30.541Z,14.13
2023-02-28T07:24:34.706Z,15.33
2023-02-28T07:27:38.604Z,15.40
2023-02-28T07:30:43.950Z,13.47
2023-02-28T07:33:47.880Z,15.43
2023-02-28T07:36:54.695Z,15.43
2023-02-28T07:39:58.725Z,15.67
2023-02-28T07:43:02.812Z,10.63
2023-02-28T07:46:10.845Z,15.50
2023-02-28T07:49:14.670Z,16.20
2023-02-28T07:52:18.542Z,15.07
2023-02-28T07:55:22.419Z,15.83
2023-02-28T07:58:27.143Z,16.20
2023-02-28T08:01:32.800Z,14.87
2023-02-28T08:04:36.908Z,14.63
2023-02-28T08:07:40.721Z,14.63
2023-02-28T08:10:45.066Z,16.90
2023-02-28T08:13:48.902Z,16.87
2023-02-28T08:16:54.023Z,13.63
2023-02-28T08:19:57.742Z,15.97
2023-02-28T08:23:01.578Z,14.33
2023-02-28T08:26:06.477Z,13.57
2023-02-28T08:29:10.281Z,16.93
2023-02-28T08:32:28.932Z,15.43
2023-02-28T08:35:33.719Z,16.83
2023-02-28T08:38:37.649Z,16.77
2023-02-28T08:41:42.482Z,16.57
2023-02-28T08:44:46.250Z,17.03
2023-02-28T08:47:53.728Z,16.70
2023-02-28T08:51:06.758Z,15.50
2023-02-28T08:54:13.773Z,16.17
2023-02-28T08:57:17.574Z,15.87
2023-02-28T09:00:22.783Z,16.40
2023-02-28T09:03:28.901Z,16.47
2023-02-28T09:06:32.893Z,15.97
2023-02-28T09:09:36.978Z,16.23
2023-02-28T09:12:40.983Z,16.87
2023-02-28T09:15:44.799Z,14.93
2023-02-28T09:18:50.668Z,18.13
2023-02-28T09:21:54.450Z,18.10
2023-02-28T09:24:58.313Z,18.17
2023-02-28T09:28:02.417Z,17.70
2023-02-28T09:31:06.442Z,16.03
2023-02-28T09:34:11.792Z,18.87
2023-02-28T09:37:15.642Z,18.10
2023-02-28T09:40:21.170Z,17.90
2023-02-28T09:43:28.045Z,19.40
2023-02-28T09:46:36.054Z,17.83
2023-02-28T09:49:45.066Z,16.17
2023-02-28T09:52:51.492Z,17.47
2023-02-28T09:56:00.198Z,17.50
2023-02-28T09:59:12.489Z,18.97
2023-02-28T10:02:39.273Z,18.17
2023-02-28T10:05:54.631Z,18.70
2023-02-28T10:09:02.787Z,19.87
2023-02-28T10:12:08.261Z,20.93
2023-02-28T10:15:16.948Z,18.70
2023-02-28T10:18:27.125Z,19.43
2023-02-28T10:21:37.852Z,18.63
2023-02-28T10:24:44.796Z,19.30
2023-02-28T10:27:48.554Z,20.07
2023-02-28T10:30:55.117Z,21.13
2023-02-28T10:33:59.094Z,20.43
2023-02-28T10:37:08.593Z,20.87
2023-02-28T10:40:30.647Z,20.17
2023-02-28T10:43:34.478Z,22.40
2023-02-28T10:46:38.438Z,22.03
2023-02-28T10:49:50.737Z,21.30
2023-02-28T10:52:56.918Z,21.23
2023-02-28T10:56:03.300Z,19.43
2023-02-28T10:59:30.603Z,24.80
2023-02-28T11:02:36.890Z,23.03
2023-02-28T11:05:42.565Z,24.23
2023-02-28T11:08:50.474Z,22.90
2023-02-28T11:11:54.953Z,21.83
2023-02-28T11:15:02.503Z,23.17
2023-02-28T11:18:24.067Z,24.57
2023-02-28T11:21:31.893Z,23.23
2023-02-28T11:24:44.613Z,20.40
2023-02-28T11:27:51.300Z,22.40
2023-02-28T11:31:08.345Z,22.83
2023-02-28T11:34:28.686Z,23.50
2023-02-28T11:37:33.921Z,21.70
2023-02-28T11:40:49.272Z,22.20
2023-02-28T11:44:08.288Z,22.87
2023-02-28T11:47:18.604Z,22.10
2023-02-28T11:50:33.793Z,22.07
2023-02-28T11:53:52.287Z,21.83
2023-02-28T11:57:02.624Z,23.03
2023-02-28T12:00:21.924Z,22.97
2023-02-28T12:03:33.728Z,22.23
2023-02-28T12:06:45.939Z,22.63
2023-02-28T12:09:59.917Z,21.57
2023-02-28T12:13:15.801Z,23.40
2023-02-28T12:16:38.869Z,24.33
2023-02-28T12:19:50.112Z,24.10
2023-02-28T12:23:01.505Z,23.80
2023-02-28T12:26:16.448Z,25.87
2023-02-28T12:29:25.302Z,24.37
2023-02-28T12:32:34.757Z,24.37
2023-02-28T12:35:47.034Z,20.43
2023-02-28T12:38:58.909Z,23.57
2023-02-28T12:42:08.936Z,21.90
2023-02-28T12:45:21.459Z,26.57
2023-02-28T12:48:32.138Z,24.17
2023-02-28T12:51:38.257Z,22.67
2023-02-28T12:54:52.974Z,25.27
2023-02-28T12:58:05.909Z,21.67
2023-02-28T13:01:45.709Z,38.27
2023-02-28T13:05:26.192Z,25.37
2023-02-28T13:09:04.302Z,23.93
2023-02-28T13:12:16.715Z,22.83
2023-02-28T13:15:25.410Z,25.97
2023-02-28T13:18:38.672Z,30.80
2023-02-28T13:21:48.402Z,26.83
2023-02-28T13:24:54.503Z,20.73
2023-02-28T13:28:02.135Z,25.53
2023-02-28T13:31:07.991Z,21.93
2023-02-28T13:34:18.180Z,23.53
2023-02-28T13:37:44.232Z,26.03
2023-02-28T13:40:48.054Z,24.73
2023-02-28T13:44:13.984Z,24.10
2023-02-28T13:47:32.106Z,26.50
2023-02-28T13:50:40.153Z,32.83
2023-02-28T13:54:02.849Z,32.50
2023-02-28T13:57:20.419Z,32.30
2023-02-28T14:00:34.600Z,27.37
2023-02-28T14:03:59.041Z,26.60
2023-02-28T14:07:05.611Z,25.47
2023-02-28T14:10:22.389Z,26.43
2023-02-28T14:13:47.957Z,22.30
2023-02-28T14:16:52.233Z,29.60
2023-02-28T14:19:56.166Z,26.17
2023-02-28T14:23:10.317Z,36.90
2023-02-28T14:26:29.570Z,20.50
2023-02-28T14:29:50.704Z,20.20
2023-02-28T14:33:08.082Z,21.23
2023-02-28T14:36:22.483Z,17.80
2023-02-28T14:39:28.767Z,19.17
2023-02-28T14:42:34.301Z,16.53
2023-02-28T14:45:39.727Z,18.80
2023-02-28T14:48:43.549Z,17.43
2023-02-28T14:51:48.528Z,19.10
2023-02-28T14:54:57.162Z,18.93
2023-02-28T14:58:04.546Z,17.97
2023-02-28T15:01:08.525Z,16.67
2023-02-28T15:04:30.018Z,17.40
2023-02-28T15:07:34.099Z,18.93
2023-02-28T15:10:41.472Z,23.93
2023-02-28T15:13:48.061Z,18.13
2023-02-28T15:16:58.779Z,21.17
2023-02-28T15:20:03.496Z,22.73
2023-02-28T15:23:07.406Z,21.40
2023-02-28T15:26:16.770Z,17.53
2023-02-28T15:29:23.661Z,14.17
2023-02-28T15:32:31.261Z,16.23
2023-02-28T15:35:36.102Z,15.27
2023-02-28T15:38:39.973Z,15.63
2023-02-28T15:41:45.256Z,13.80
2023-02-28T15:44:49.515Z,12.77
2023-02-28T15:47:54.661Z,14.70
2023-02-28T15:51:03.489Z,16.40
2023-02-28T15:54:09.994Z,18.13
2023-02-28T15:57:18.130Z,13.97
2023-02-28T16:00:25.264Z,15.07
2023-02-28T16:03:37.546Z,16.13
2023-02-28T16:06:43.900Z,15.87
2023-02-28T16:09:48.389Z,17.70
2023-02-28T16:12:55.278Z,16.50
2023-02-28T16:16:00.718Z,16.27
2023-02-28T16:19:04.497Z,17.30
2023-02-28T16:22:08.335Z,15.60
2023-02-28T16:25:14.598Z,24.87
2023-02-28T16:28:23.525Z,16.57
2023-02-28T16:31:27.686Z,13.90
2023-02-28T16:34:31.562Z,17.70
2023-02-28T16:37:35.398Z,17.27
2023-02-28T16:40:39.291Z,16.20
2023-02-28T16:43:45.596Z,18.33
2023-02-28T16:46:49.414Z,17.43
2023-02-28T16:49:53.203Z,17.43
2023-02-28T16:52:57.162Z,15.97
2023-02-28T16:56:03.134Z,13.43
2023-02-28T16:59:08.343Z,12.87
2023-02-28T17:02:15.460Z,21.40
2023-02-28T17:05:20.730Z,16.10
2023-02-28T17:08:24.474Z,16.63
2023-02-28T17:11:29.227Z,15.67
2023-02-28T17:14:34.594Z,15.03
2023-02-28T17:17:38.297Z,15.30
2023-02-28T17:20:43.469Z,17.33
2023-02-28T17:23:47.299Z,16.43
2023-02-28T17:26:51.186Z,15.13
2023-02-28T17:29:56.541Z,14.80
2023-02-28T17:33:00.434Z,15.63
2023-02-28T17:36:04.406Z,13.80
2023-02-28T17:39:15.031Z,9.33
2023-02-28T17:42:20.309Z,9.40
2023-02-28T17:45:26.030Z,10.07
2023-02-28T17:48:31.935Z,8.13
2023-02-28T17:51:35.760Z,8.00
2023-02-28T17:54:39.571Z,7.97
2023-02-28T17:57:44.190Z,7.40
2023-02-28T18:00:54.937Z,6.93
2023-02-28T18:03:58.847Z,6.63
2023-02-28T18:07:02.940Z,5.87
2023-02-28T18:10:08.253Z,6.60
2023-02-28T18:13:12.770Z,6.37
2023-02-28T18:16:19.192Z,6.40
2023-02-28T18:19:23.386Z,5.30
2023-02-28T18:22:27.160Z,4.67
2023-02-28T18:25:31.362Z,5.37
2023-02-28T18:28:35.259Z,5.27
2023-02-28T18:31:40.408Z,6.00
2023-02-28T18:34:44.225Z,6.17
2023-02-28T18:37:48.044Z,8.63
2023-02-28T18:40:57.241Z,9.20
2023-02-28T18:44:10.410Z,6.27
2023-02-28T18:47:20.004Z,9.40
2023-02-28T18:50:23.846Z,7.57
2023-02-28T18:53:27.577Z,7.77
2023-02-28T18:56:31.712Z,7.17
2023-02-28T18:59:35.614Z,11.20
2023-02-28T19:02:40.892Z,11.03
2023-02-28T19:05:44.769Z,9.47
2023-02-28T19:08:49.534Z,14.30
2023-02-28T19:11:53.285Z,6.30
2023-02-28T19:14:56.998Z,7.73
2023-02-28T19:18:02.440Z,4.60
2023-02-28T19:21:08.217Z,2.80
2023-02-28T19:24:12.498Z,4.07
2023-02-28T19:27:17.510Z,3.00
2023-02-28T19:30:21.605Z,3.67
2023-02-28T19:33:26.880Z,4.10
2023-02-28T19:36:30.702Z,4.17
2023-02-28T19:39:41.241Z,5.70
2023-02-28T19:42:45.147Z,6.33
2023-02-28T19:45:49.342Z,6.03
2023-02-28T19:48:56.508Z,5.80
2023-02-28T19:52:00.288Z,5.43
2023-02-28T19:55:04.120Z,5.00
2023-02-28T19:58:07.912Z,5.30
2023-02-28T20:01:13.768Z,5.23
2023-02-28T20:04:19.004Z,7.47
2023-02-28T20:07:22.865Z,5.37
2023-02-28T20:10:26.693Z,5.63
2023-02-28T20:13:30.881Z,5.10
2023-02-28T20:16:34.857Z,5.40
2023-02-28T20:19:40.202Z,4.60
2023-02-28T20:22:44.050Z,4.93
2023-02-28T20:25:47.886Z,5.70
2023-02-28T20:28:51.646Z,5.03
2023-02-28T20:31:55.782Z,3.70
2023-02-28T20:35:01.053Z,4.40
2023-02-28T20:38:04.830Z,4.00
2023-02-28T20:41:09.120Z,3.17
2023-02-28T20:44:14.591Z,3.80
2023-02-28T20:47:18.414Z,3.57
2023-02-28T20:50:23.614Z,3.97
2023-02-28T20:53:28.949Z,3.67
2023-02-28T20:56:32.806Z,3.73
2023-02-28T20:59:36.689Z,6.60
2023-02-28T21:02:40.575Z,3.97
2023-02-28T21:05:45.888Z,5.33
2023-02-28T21:08:50.371Z,4.93
2023-02-28T21:11:55.342Z,3.77
2023-02-28T21:14:59.048Z,5.47
2023-02-28T21:18:02.815Z,8.30
2023-02-28T21:21:10.373Z,8.67
2023-02-28T21:24:15.480Z,4.67
2023-02-28T21:27:19.275Z,7.00
2023-02-28T21:30:23.253Z,4.27
2023-02-28T21:33:27.400Z,6.53
2023-02-28T21:36:35.220Z,2.17
2023-02-28T21:39:38.951Z,2.23
2023-02-28T21:42:42.830Z,3.37
2023-02-28T21:45:46.611Z,5.97
2023-02-28T21:48:51.161Z,2.90
2023-02-28T21:51:56.448Z,5.57
2023-02-28T21:55:00.130Z,3.60
2023-02-28T21:58:04.164Z,6.83
2023-02-28T22:01:09.571Z,3.40
2023-02-28T22:04:21.355Z,3.30
2023-02-28T22:07:26.688Z,2.30
2023-02-28T22:10:30.626Z,5.77
2023-02-28T22:13:35.077Z,2.37
2023-02-28T22:16:50.837Z,4.70
2023-02-28T22:19:55.908Z,3.60
2023-02-28T22:23:01.380Z,1.90
2023-02-28T22:26:07.275Z,2.00
2023-02-28T22:29:11.033Z,1.90
2023-02-28T22:32:15.562Z,2.60
2023-02-28T22:35:20.622Z,1.63
2023-02-28T22:38:27.553Z,1.60
2023-02-28T22:41:31.940Z,1.57
2023-02-28T22:44:35.671Z,1.53
2023-02-28T22:47:39.431Z,1.57
2023-02-28T22:50:43.345Z,1.80
2023-02-28T22:53:50.047Z,1.33
2023-02-28T22:56:53.942Z,1.20
2023-02-28T22:59:57.673Z,1.90
2023-02-28T23:03:01.531Z,1.93
2023-02-28T23:06:14.448Z,1.97
2023-02-28T23:09:21.781Z,2.10
2023-02-28T23:12:25.694Z,2.10
2023-02-28T23:15:29.497Z,1.83
2023-02-28T23:18:33.304Z,2.70
2023-02-28T23:21:37.530Z,1.80
2023-02-28T23:24:42.745Z,2.23
2023-02-28T23:27:46.649Z,1.67
2023-02-28T23:30:50.444Z,1.50
2023-02-28T23:33:54.383Z,2.47
2023-02-28T23:37:00.148Z,2.80
2023-02-28T23:40:08.396Z,1.63
2023-02-28T23:43:12.487Z,3.07
2023-02-28T23:46:17.889Z,2.40
2023-02-28T23:49:22.226Z,1.80
2023-02-28T23:52:25.907Z,2.83
2023-02-28T23:55:31.110Z,2.40
2023-02-28T23:58:35.966Z,1.60
